createdAt,value
2023-03-21T00:00:17.280Z,6.32
2023-03-21T00:02:43.662Z,5.90
2023-03-21T00:05:15.801Z,6.18
2023-03-21T00:07:42.778Z,6.97
2023-03-21T00:10:16.558Z,6.47
2023-03-21T00:12:44.759Z,7.18
2023-03-21T00:15:12.796Z,6.47
2023-03-21T00:17:39.523Z,5.55
2023-03-21T00:20:15.221Z,5.50
2023-03-21T00:22:41.919Z,6.68
2023-03-21T00:25:10.488Z,6.55
2023-03-21T00:27:53.684Z,6.93
2023-03-21T00:30:23.965Z,6.53
2023-03-21T00:32:56.505Z,5.82
2023-03-21T00:35:57.483Z,5.90
2023-03-21T00:38:10.373Z,6.43
2023-03-21T00:40:43.779Z,6.05
2023-03-21T00:43:17.388Z,3.80
2023-03-21T00:45:44.947Z,6.07
2023-03-21T00:48:11.498Z,5.90
2023-03-21T00:50:39.339Z,6.03
2023-03-21T00:53:06.852Z,6.68
2023-03-21T00:55:33.899Z,6.05
2023-03-21T00:58:02.479Z,6.60
2023-03-21T01:00:29.720Z,6.13
2023-03-21T01:03:04.441Z,7.40
2023-03-21T01:05:57.099Z,6.30
2023-03-21T01:08:29.339Z,6.70
2023-03-21T01:11:01.944Z,5.80
2023-03-21T01:13:28.484Z,6.05
2023-03-21T01:15:56.698Z,6.50
2023-03-21T01:18:27.170Z,6.25
2023-03-21T01:20:56.076Z,6.80
2023-03-21T01:23:23.023Z,6.43
2023-03-21T01:25:52.421Z,6.53
2023-03-21T01:28:18.748Z,5.78
2023-03-21T01:30:50.845Z,6.47
2023-03-21T01:33:19.279Z,6.45
2023-03-21T01:35:53.472Z,6.57
2023-03-21T01:38:27.150Z,5.75
2023-03-21T01:40:53.796Z,7.63
2023-03-21T01:43:22.670Z,6.60
2023-03-21T01:46:27.351Z,6.90
2023-03-21T01:49:00.669Z,6.93
2023-03-21T01:51:28.778Z,6.13
2023-03-21T01:53:55.909Z,7.00
2023-03-21T01:56:26.350Z,7.97
2023-03-21T01:58:56.789Z,6.78
2023-03-21T02:01:23.286Z,6.80
2023-03-21T02:03:51.697Z,7.15
2023-03-21T02:06:31.733Z,6.63
2023-03-21T02:09:08.625Z,5.88
2023-03-21T02:11:37.208Z,6.43
2023-03-21T02:14:06.710Z,6.85
2023-03-21T02:17:15.666Z,8.00
2023-03-21T02:19:58.881Z,6.78
2023-03-21T02:23:02.367Z,8.48
2023-03-21T02:25:53.399Z,7.53
2023-03-21T02:28:30.926Z,8.10
2023-03-21T02:31:22.334Z,8.27
2023-03-21T02:34:17.929Z,7.07
2023-03-21T02:37:03.266Z,7.97
2023-03-21T02:39:56.470Z,8.68
2023-03-21T02:42:34.524Z,7.43
2023-03-21T02:45:33.310Z,7.93
2023-03-21T02:48:12.157Z,8.07
2023-03-21T02:50:49.666Z,7.07
2023-03-21T02:53:20.279Z,7.25
2023-03-21T02:55:48.071Z,7.30
2023-03-21T02:58:18.935Z,7.18
2023-03-21T03:00:46.008Z,7.47
2023-03-21T03:03:24.794Z,7.47
2023-03-21T03:06:00.669Z,7.10
2023-03-21T03:09:03.349Z,8.05
2023-03-21T03:11:34.652Z,6.05
2023-03-21T03:14:49.902Z,7.30
2023-03-21T03:17:49.151Z,6.75
2023-03-21T03:20:32.758Z,6.80
2023-03-21T03:23:05.774Z,7.10
2023-03-21T03:26:02.339Z,6.75
2023-03-21T03:28:37.113Z,6.38
2023-03-21T03:31:09.511Z,7.03
2023-03-21T03:33:40.839Z,6.25
2023-03-21T03:36:18.822Z,6.60
2023-03-21T03:38:57.335Z,6.82
2023-03-21T03:41:29.443Z,6.72
2023-03-21T03:43:59.454Z,5.93
2023-03-21T03:46:35.867Z,6.13
2023-03-21T03:49:09.510Z,5.70
2023-03-21T03:52:01.550Z,6.20
2023-03-21T03:54:37.147Z,5.72
2023-03-21T03:57:05.182Z,5.82
2023-03-21T03:59:35.890Z,5.90
2023-03-21T04:02:02.980Z,5.65
2023-03-21T04:04:29.595Z,6.13
2023-03-21T04:06:57.977Z,6.85
2023-03-21T04:09:37.454Z,5.53
2023-03-21T04:12:09.778Z,6.93
2023-03-21T04:14:44.401Z,6.22
2023-03-21T04:17:11.256Z,6.30
2023-03-21T04:19:37.696Z,6.68
2023-03-21T04:22:04.047Z,7.03
2023-03-21T04:24:33.686Z,6.38
2023-03-21T04:27:00.994Z,7.07
2023-03-21T04:29:29.574Z,6.47
2023-03-21T04:31:56.645Z,6.65
2023-03-21T04:34:28.066Z,6.40
2023-03-21T04:36:55.449Z,6.32
2023-03-21T04:39:21.911Z,7.32
2023-03-21T04:41:48.608Z,5.97
2023-03-21T04:44:16.427Z,6.28
2023-03-21T04:46:43.066Z,6.30
2023-03-21T04:49:09.736Z,6.82
2023-03-21T04:51:36.946Z,6.45
2023-03-21T04:54:03.729Z,6.70
2023-03-21T04:56:32.521Z,6.47
2023-03-21T04:59:00.160Z,7.13
2023-03-21T05:01:30.682Z,6.90
2023-03-21T05:04:01.576Z,6.50
2023-03-21T05:06:28.942Z,6.85
2023-03-21T05:08:59.832Z,6.85
2023-03-21T05:11:28.214Z,6.40
2023-03-21T05:13:54.648Z,8.55
2023-03-21T05:16:25.324Z,6.25
2023-03-21T05:18:53.456Z,6.95
2023-03-21T05:21:20.861Z,6.50
2023-03-21T05:23:54.148Z,6.45
2023-03-21T05:26:22.212Z,5.75
2023-03-21T05:28:49.084Z,5.85
2023-03-21T05:31:16.718Z,5.93
2023-03-21T05:33:44.433Z,6.57
2023-03-21T05:36:11.239Z,6.43
2023-03-21T05:38:38.255Z,6.43
2023-03-21T05:41:05.052Z,6.80
2023-03-21T05:43:31.441Z,6.15
2023-03-21T05:45:57.955Z,5.72
2023-03-21T05:48:24.368Z,6.22
2023-03-21T05:50:50.850Z,5.43
2023-03-21T05:53:17.266Z,6.32
2023-03-21T05:55:43.591Z,6.18
2023-03-21T05:58:09.930Z,5.57
2023-03-21T06:00:36.504Z,7.00
2023-03-21T06:03:03.085Z,6.05
2023-03-21T06:05:29.480Z,6.25
2023-03-21T06:07:56.109Z,6.03
2023-03-21T06:10:22.912Z,6.10
2023-03-21T06:12:49.366Z,6.70
2023-03-21T06:15:16.501Z,7.22
2023-03-21T06:17:42.978Z,5.85
2023-03-21T06:20:10.573Z,5.72
2023-03-21T06:22:36.978Z,5.63
2023-03-21T06:25:05.140Z,6.22
2023-03-21T06:27:31.427Z,6.60
2023-03-21T06:29:58.056Z,6.22
2023-03-21T06:32:24.930Z,6.45
2023-03-21T06:34:51.581Z,6.53
2023-03-21T06:37:18.494Z,6.78
2023-03-21T06:39:46.963Z,6.72
2023-03-21T06:42:14.168Z,6.10
2023-03-21T06:44:41.152Z,6.22
2023-03-21T06:47:07.677Z,6.30
2023-03-21T06:49:34.135Z,6.00
2023-03-21T06:52:00.658Z,6.28
2023-03-21T06:54:26.984Z,5.80
2023-03-21T06:56:54.270Z,6.03
2023-03-21T06:59:21.496Z,5.50
2023-03-21T07:01:48.747Z,6.20
2023-03-21T07:04:15.212Z,6.40
2023-03-21T07:06:42.461Z,6.03
2023-03-21T07:09:08.910Z,6.47
2023-03-21T07:11:36.828Z,5.70
2023-03-21T07:14:04.102Z,6.68
2023-03-21T07:16:30.672Z,6.05
2023-03-21T07:18:57.208Z,5.30
2023-03-21T07:21:23.780Z,6.40
2023-03-21T07:23:50.631Z,5.97
2023-03-21T07:26:18.234Z,6.45
2023-03-21T07:28:45.485Z,5.68
2023-03-21T07:31:14.420Z,5.60
2023-03-21T07:33:41.012Z,5.45
2023-03-21T07:36:12.514Z,5.88
2023-03-21T07:38:39.565Z,6.32
2023-03-21T07:41:06.312Z,5.45
2023-03-21T07:43:32.693Z,5.40
2023-03-21T07:46:02.457Z,5.47
2023-03-21T07:48:29.604Z,5.63
2023-03-21T07:50:56.482Z,5.00
2023-03-21T07:53:22.966Z,5.25
2023-03-21T07:55:51.479Z,5.20
2023-03-21T07:58:18.098Z,5.25
2023-03-21T08:00:44.553Z,4.85
2023-03-21T08:03:11.182Z,4.07
2023-03-21T08:05:38.814Z,6.00
2023-03-21T08:08:06.095Z,4.80
2023-03-21T08:10:33.666Z,5.35
2023-03-21T08:13:00.131Z,4.72
2023-03-21T08:15:26.503Z,4.10
2023-03-21T08:17:53.061Z,3.92
2023-03-21T08:20:21.739Z,3.90
2023-03-21T08:22:49.528Z,3.08
2023-03-21T08:25:19.526Z,3.75
2023-03-21T08:27:46.647Z,4.47
2023-03-21T08:30:16.494Z,4.13
2023-03-21T08:32:43.197Z,4.00
2023-03-21T08:35:12.233Z,4.05
2023-03-21T08:37:40.073Z,4.63
2023-03-21T08:40:11.131Z,4.20
2023-03-21T08:45:05.782Z,4.30
2023-03-21T08:47:32.546Z,5.07
2023-03-21T08:49:59.330Z,5.20
2023-03-21T08:52:27.000Z,4.43
2023-03-21T08:54:54.458Z,3.95
2023-03-21T08:57:21.219Z,4.53
2023-03-21T08:59:47.580Z,5.13
2023-03-21T09:02:16.116Z,4.18
2023-03-21T09:04:44.689Z,4.60
2023-03-21T09:07:14.275Z,4.53
2023-03-21T09:09:41.538Z,4.25
2023-03-21T09:12:08.395Z,3.80
2023-03-21T09:14:35.230Z,4.82
2023-03-21T09:17:02.031Z,3.22
2023-03-21T09:19:29.710Z,4.40
2023-03-21T09:21:57.502Z,4.50
2023-03-21T09:24:24.181Z,4.68
2023-03-21T09:26:51.592Z,5.35
2023-03-21T09:29:21.630Z,5.05
2023-03-21T09:31:48.218Z,4.63
2023-03-21T09:34:15.578Z,3.50
2023-03-21T09:36:44.010Z,3.72
2023-03-21T09:39:11.998Z,4.35
2023-03-21T09:42:15.449Z,5.03
2023-03-21T09:45:01.633Z,4.72
2023-03-21T09:47:32.977Z,5.07
2023-03-21T09:50:13.981Z,4.60
2023-03-21T09:53:19.028Z,5.10
2023-03-21T09:55:46.183Z,4.25
2023-03-21T09:58:30.848Z,4.43
2023-03-21T10:01:08.226Z,3.78
2023-03-21T10:03:35.299Z,4.20
2023-03-21T10:06:07.138Z,4.05
2023-03-21T10:08:37.286Z,3.72
2023-03-21T10:11:11.874Z,3.40
2023-03-21T10:13:49.038Z,3.90
2023-03-21T10:16:21.167Z,3.72
2023-03-21T10:18:49.089Z,3.88
2023-03-21T10:21:47.386Z,4.25
2023-03-21T10:24:22.314Z,3.58
2023-03-21T10:26:51.138Z,3.97
2023-03-21T10:29:22.414Z,3.97
2023-03-21T10:31:50.641Z,3.67
2023-03-21T10:34:39.909Z,3.95
2023-03-21T10:37:06.913Z,3.95
2023-03-21T10:39:38.986Z,4.15
2023-03-21T10:42:06.567Z,3.88
2023-03-21T10:44:35.560Z,4.00
2023-03-21T10:47:08.608Z,2.75
2023-03-21T10:50:06.306Z,3.47
2023-03-21T10:52:29.704Z,3.55
2023-03-21T10:55:28.813Z,3.53
2023-03-21T10:58:08.293Z,3.58
2023-03-21T11:00:39.889Z,3.72
2023-03-21T11:03:07.871Z,3.13
2023-03-21T11:05:38.574Z,3.03
2023-03-21T11:08:18.899Z,2.67
2023-03-21T11:10:55.233Z,3.35
2023-03-21T11:13:42.598Z,3.63
2023-03-21T11:16:09.277Z,3.25
2023-03-21T11:18:42.142Z,2.50
2023-03-21T11:21:11.811Z,2.85
2023-03-21T11:23:45.402Z,3.03
2023-03-21T11:26:19.669Z,2.75
2023-03-21T11:28:46.454Z,3.17
2023-03-21T11:31:13.297Z,3.13
2023-03-21T11:33:49.397Z,3.03
2023-03-21T11:36:18.750Z,2.75
2023-03-21T11:38:52.824Z,3.15
2023-03-21T11:41:29.688Z,3.28
2023-03-21T11:43:56.931Z,3.50
2023-03-21T11:46:25.731Z,3.10
2023-03-21T11:48:52.752Z,2.38
2023-03-21T11:51:41.039Z,3.17
2023-03-21T11:54:17.506Z,2.47
2023-03-21T11:56:47.650Z,2.40
2023-03-21T11:59:29.370Z,2.90
2023-03-21T12:02:14.876Z,2.90
2023-03-21T12:04:48.026Z,2.45
2023-03-21T12:07:23.502Z,2.60
2023-03-21T12:10:14.834Z,2.83
2023-03-21T12:12:50.364Z,2.58
2023-03-21T12:15:38.425Z,2.40
2023-03-21T12:18:34.165Z,2.88
2023-03-21T12:21:18.540Z,2.22
2023-03-21T12:23:54.135Z,3.08
2023-03-21T12:26:28.796Z,2.55
2023-03-21T12:29:10.170Z,2.50
2023-03-21T12:32:07.592Z,2.40
2023-03-21T12:34:49.099Z,2.50
2023-03-21T12:37:33.842Z,2.75
2023-03-21T12:40:33.981Z,2.58
2023-03-21T12:43:08.993Z,2.30
2023-03-21T12:45:47.215Z,2.72
2023-03-21T12:48:47.635Z,2.25
2023-03-21T12:51:22.838Z,2.67
2023-03-21T12:54:07.703Z,2.88
2023-03-21T12:56:37.924Z,2.50
2023-03-21T12:59:13.024Z,2.60
2023-03-21T13:01:41.667Z,2.40
2023-03-21T13:04:26.330Z,2.20
2023-03-21T13:06:55.908Z,2.30
2023-03-21T13:09:40.604Z,2.40
2023-03-21T13:12:18.867Z,2.60
2023-03-21T13:15:03.531Z,2.28
2023-03-21T13:17:37.596Z,3.13
2023-03-21T13:20:15.968Z,2.47
2023-03-21T13:22:42.279Z,2.58
2023-03-21T13:25:22.179Z,2.30
2023-03-21T13:28:02.183Z,2.40
2023-03-21T13:30:30.526Z,2.80
2023-03-21T13:33:37.419Z,2.38
2023-03-21T13:36:09.129Z,2.53
2023-03-21T13:38:39.940Z,2.30
2023-03-21T13:41:17.689Z,2.35
2023-03-21T13:43:51.290Z,2.47
2023-03-21T13:46:26.685Z,1.35
2023-03-21T13:48:58.796Z,2.15
2023-03-21T13:51:28.385Z,2.03
2023-03-21T13:54:07.877Z,1.95
2023-03-21T13:56:46.669Z,2.08
2023-03-21T13:59:18.365Z,2.40
2023-03-21T14:02:13.449Z,2.47
2023-03-21T14:05:00.003Z,2.55
2023-03-21T14:07:33.499Z,2.22
2023-03-21T14:10:05.181Z,2.33
2023-03-21T14:12:39.498Z,2.15
2023-03-21T14:15:17.838Z,1.90
2023-03-21T14:17:58.583Z,1.95
2023-03-21T14:20:39.286Z,1.85
2023-03-21T14:23:08.232Z,1.90
2023-03-21T14:25:46.824Z,2.25
2023-03-21T14:28:20.534Z,2.22
2023-03-21T14:30:53.795Z,1.80
2023-03-21T14:33:27.280Z,2.28
2023-03-21T14:35:57.956Z,1.98
2023-03-21T14:38:27.584Z,2.13
2023-03-21T14:40:55.735Z,1.90
2023-03-21T14:43:24.126Z,2.42
2023-03-21T14:45:54.458Z,2.00
2023-03-21T14:48:28.415Z,2.42
2023-03-21T14:50:57.186Z,2.60
2023-03-21T14:53:27.929Z,2.13
2023-03-21T14:56:06.420Z,2.05
2023-03-21T14:58:34.150Z,2.00
2023-03-21T15:01:06.227Z,2.40
2023-03-21T15:03:33.712Z,2.35
2023-03-21T15:06:01.300Z,2.22
2023-03-21T15:08:28.907Z,2.25
2023-03-21T15:11:08.121Z,2.50
2023-03-21T15:13:40.376Z,2.67
2023-03-21T15:16:07.620Z,2.35
2023-03-21T15:18:36.750Z,1.90
2023-03-21T15:21:27.602Z,2.67
2023-03-21T15:23:57.749Z,2.45
2023-03-21T15:26:25.959Z,2.67
2023-03-21T15:28:58.411Z,2.50
2023-03-21T15:31:31.814Z,2.20
2023-03-21T15:33:58.605Z,2.80
2023-03-21T15:36:34.026Z,2.08
2023-03-21T15:39:12.582Z,2.60
2023-03-21T15:41:39.147Z,3.00
2023-03-21T15:44:08.336Z,2.58
2023-03-21T15:46:49.896Z,2.90
2023-03-21T15:49:16.318Z,3.08
2023-03-21T15:51:46.120Z,2.33
2023-03-21T15:54:21.991Z,2.78
2023-03-21T15:56:51.523Z,2.28
2023-03-21T15:59:18.087Z,2.40
2023-03-21T16:01:49.091Z,2.15
2023-03-21T16:07:15.936Z,2.50
2023-03-21T16:09:45.310Z,2.95
2023-03-21T16:12:14.288Z,2.35
2023-03-21T16:14:42.602Z,2.65
2023-03-21T16:17:27.589Z,2.55
2023-03-21T16:19:55.191Z,2.67
2023-03-21T16:22:22.157Z,2.60
2023-03-21T16:24:48.779Z,2.78
2023-03-21T16:27:18.251Z,2.85
2023-03-21T16:29:44.663Z,2.90
2023-03-21T16:32:18.042Z,3.10
2023-03-21T16:34:44.671Z,3.20
2023-03-21T16:37:12.040Z,2.33
2023-03-21T16:39:38.564Z,2.67
2023-03-21T16:42:05.643Z,2.88
2023-03-21T16:44:33.627Z,2.00
2023-03-21T16:47:02.368Z,1.92
2023-03-21T16:49:29.111Z,2.40
2023-03-21T16:51:56.469Z,2.28
2023-03-21T16:54:23.134Z,2.40
2023-03-21T16:56:52.514Z,2.42
2023-03-21T16:59:19.213Z,2.33
2023-03-21T17:01:47.670Z,2.10
2023-03-21T17:04:16.264Z,2.47
2023-03-21T17:06:46.246Z,2.30
2023-03-21T17:09:14.427Z,2.22
2023-03-21T17:11:44.541Z,2.20
2023-03-21T17:14:12.795Z,2.10
2023-03-21T17:16:42.423Z,2.75
2023-03-21T17:19:23.794Z,2.40
2023-03-21T17:21:50.210Z,2.00
2023-03-21T17:24:16.702Z,3.40
2023-03-21T17:26:43.106Z,2.08
2023-03-21T17:29:13.833Z,1.65
2023-03-21T17:31:40.279Z,2.33
2023-03-21T17:34:06.830Z,1.80
2023-03-21T17:36:38.648Z,1.85
2023-03-21T17:39:08.780Z,2.50
2023-03-21T17:41:35.585Z,2.00
2023-03-21T17:44:02.660Z,2.53
2023-03-21T17:46:34.157Z,2.15
2023-03-21T17:49:00.615Z,2.63
2023-03-21T17:51:30.040Z,1.50
2023-03-21T17:53:57.199Z,1.90
2023-03-21T17:56:30.612Z,1.90
2023-03-21T17:59:02.839Z,1.58
2023-03-21T18:01:31.209Z,2.30
2023-03-21T18:03:58.573Z,2.00
2023-03-21T18:06:26.402Z,2.40
2023-03-21T18:08:54.138Z,2.22
2023-03-21T18:11:22.501Z,2.67
2023-03-21T18:13:49.013Z,2.47
2023-03-21T18:16:19.359Z,4.65
2023-03-21T18:18:46.610Z,2.28
2023-03-21T18:21:14.426Z,2.50
2023-03-21T18:23:41.004Z,2.60
2023-03-21T18:26:09.792Z,2.63
2023-03-21T18:28:39.556Z,3.15
2023-03-21T18:31:15.674Z,3.05
2023-03-21T18:33:46.522Z,2.55
2023-03-21T18:36:16.260Z,3.20
2023-03-21T18:38:43.211Z,2.70
2023-03-21T18:41:09.811Z,2.60
2023-03-21T18:44:02.237Z,2.53
2023-03-21T18:46:24.196Z,3.03
2023-03-21T18:48:51.796Z,2.65
2023-03-21T18:51:19.172Z,3.08
2023-03-21T18:53:45.735Z,3.08
2023-03-21T18:56:46.617Z,2.83
2023-03-21T18:58:59.178Z,2.60
2023-03-21T19:01:25.757Z,3.20
2023-03-21T19:04:16.436Z,2.97
2023-03-21T19:06:46.568Z,3.20
2023-03-21T19:09:14.343Z,3.00
2023-03-21T19:11:44.008Z,3.10
2023-03-21T19:14:11.481Z,3.30
2023-03-21T19:17:02.086Z,2.85
2023-03-21T19:19:26.038Z,3.53
2023-03-21T19:21:52.618Z,3.90
2023-03-21T19:24:27.588Z,3.50
2023-03-21T19:26:54.735Z,3.58
2023-03-21T19:29:21.938Z,3.90
2023-03-21T19:31:50.944Z,3.33
2023-03-21T19:34:17.834Z,3.53
2023-03-21T19:36:45.960Z,3.10
2023-03-21T19:39:13.229Z,3.10
2023-03-21T19:41:40.531Z,2.80
2023-03-21T19:44:06.960Z,3.20
2023-03-21T19:46:33.317Z,3.20
2023-03-21T19:49:03.896Z,2.45
2023-03-21T19:51:31.130Z,2.65
2023-03-21T19:54:04.593Z,3.05
2023-03-21T19:56:31.888Z,3.20
2023-03-21T19:58:58.577Z,2.30
2023-03-21T20:01:25.982Z,2.70
2023-03-21T20:03:52.582Z,3.65
2023-03-21T20:06:19.733Z,3.08
2023-03-21T20:11:33.558Z,2.75
2023-03-21T20:14:02.736Z,3.20
2023-03-21T20:16:35.502Z,4.00
2023-03-21T20:19:08.591Z,3.25
2023-03-21T20:21:46.201Z,3.28
2023-03-21T20:24:16.816Z,2.88
2023-03-21T20:26:44.898Z,3.22
2023-03-21T20:30:03.827Z,3.42
2023-03-21T20:31:57.886Z,3.42
2023-03-21T20:34:28.450Z,3.40
2023-03-21T20:39:22.142Z,2.97
2023-03-21T20:41:48.907Z,3.85
2023-03-21T20:47:05.429Z,3.83
2023-03-21T20:49:32.117Z,4.20
2023-03-21T20:54:45.570Z,4.85
2023-03-21T20:57:12.100Z,4.25
2023-03-21T20:59:39.187Z,4.88
2023-03-21T21:02:05.514Z,4.32
2023-03-21T21:04:49.821Z,4.28
2023-03-21T21:07:21.303Z,5.68
2023-03-21T21:09:48.731Z,4.63
2023-03-21T21:12:18.930Z,4.57
2023-03-21T21:14:45.622Z,4.47
2023-03-21T21:17:54.003Z,5.22
2023-03-21T21:20:01.440Z,4.72
2023-03-21T21:22:28.853Z,5.25
2023-03-21T21:24:55.206Z,4.82
2023-03-21T21:27:21.547Z,4.72
2023-03-21T21:29:49.875Z,4.90
2023-03-21T21:32:18.270Z,5.05
2023-03-21T21:34:44.708Z,4.57
2023-03-21T21:37:11.162Z,4.97
2023-03-21T21:39:41.836Z,5.00
2023-03-21T21:42:08.258Z,4.07
2023-03-21T21:44:34.687Z,4.88
2023-03-21T21:47:04.046Z,4.10
2023-03-21T21:49:31.092Z,4.50
2023-03-21T21:51:59.644Z,4.95
2023-03-21T21:54:26.014Z,4.78
2023-03-21T21:56:53.899Z,4.22
2023-03-21T21:59:21.929Z,4.68
2023-03-21T22:01:48.380Z,5.00
2023-03-21T22:04:15.354Z,4.50
2023-03-21T22:06:43.144Z,4.53
2023-03-21T22:09:10.817Z,4.43
2023-03-21T22:11:37.193Z,4.15
2023-03-21T22:14:03.649Z,4.18
2023-03-21T22:16:30.293Z,3.50
2023-03-21T22:18:56.692Z,4.10
2023-03-21T22:21:23.515Z,4.53
2023-03-21T22:23:50.234Z,3.60
2023-03-21T22:26:16.754Z,4.43
2023-03-21T22:28:43.736Z,4.38
2023-03-21T22:31:15.681Z,4.30
2023-03-21T22:33:43.207Z,4.43
2023-03-21T22:36:10.749Z,3.83
2023-03-21T22:38:38.023Z,3.75
2023-03-21T22:41:05.999Z,3.70
2023-03-21T22:43:35.693Z,3.60
2023-03-21T22:46:03.449Z,3.90
2023-03-21T22:48:30.778Z,3.70
2023-03-21T22:50:58.618Z,3.83
2023-03-21T22:53:25.262Z,3.75
2023-03-21T22:55:51.708Z,3.38
2023-03-21T22:58:18.116Z,3.30
2023-03-21T23:00:47.817Z,3.75
2023-03-21T23:03:16.407Z,3.63
2023-03-21T23:05:44.385Z,3.10
2023-03-21T23:08:12.593Z,3.55
2023-03-21T23:10:41.482Z,3.20
2023-03-21T23:13:08.282Z,3.78
2023-03-21T23:15:34.618Z,3.17
2023-03-21T23:18:01.022Z,3.13
2023-03-21T23:20:27.519Z,3.50
2023-03-21T23:22:54.282Z,3.80
2023-03-21T23:25:21.170Z,4.20
2023-03-21T23:27:48.135Z,3.30
2023-03-21T23:30:14.683Z,3.25
2023-03-21T23:32:41.324Z,2.60
2023-03-21T23:35:08.518Z,2.45
2023-03-21T23:37:34.932Z,2.33
2023-03-21T23:40:01.496Z,2.30
2023-03-21T23:42:29.214Z,2.58
2023-03-21T23:44:55.707Z,2.55
2023-03-21T23:47:22.096Z,2.65
2023-03-21T23:49:49.887Z,2.25
2023-03-21T23:52:16.287Z,2.40
2023-03-21T23:54:42.908Z,1.67
2023-03-21T23:57:09.475Z,2.55
2023-03-21T23:59:35.966Z,2.22
